createdAt,value
2022-09-15T00:01:21.419Z,7.80
2022-09-15T00:03:51.518Z,6.68
2022-09-15T00:06:21.402Z,8.05
2022-09-15T00:08:50.011Z,9.23
2022-09-15T00:11:20.973Z,8.35
2022-09-15T00:13:49.724Z,9.75
2022-09-15T00:16:20.058Z,6.80
2022-09-15T00:18:49.048Z,7.30
2022-09-15T00:21:19.013Z,6.35
2022-09-15T00:23:49.674Z,6.90
2022-09-15T00:26:20.254Z,7.25
2022-09-15T00:28:49.378Z,6.22
2022-09-15T00:31:20.739Z,6.78
2022-09-15T00:33:50.422Z,6.97
2022-09-15T00:36:19.676Z,5.55
2022-09-15T00:38:49.913Z,5.28
2022-09-15T00:41:21.151Z,6.60
2022-09-15T00:43:53.043Z,6.90
2022-09-15T00:46:24.050Z,6.18
2022-09-15T00:48:58.812Z,5.43
2022-09-15T00:51:33.605Z,4.90
2022-09-15T00:54:07.065Z,5.60
2022-09-15T00:56:38.046Z,5.50
2022-09-15T00:59:13.064Z,5.90
2022-09-15T01:01:43.989Z,4.95
2022-09-15T01:04:13.030Z,5.25
2022-09-15T01:06:46.541Z,4.50
2022-09-15T01:09:19.939Z,5.60
2022-09-15T01:11:48.301Z,4.90
2022-09-15T01:14:16.925Z,5.57
2022-09-15T01:16:57.499Z,5.18
2022-09-15T01:19:59.423Z,4.97
2022-09-15T01:22:36.880Z,4.68
2022-09-15T01:25:11.004Z,5.28
2022-09-15T01:27:54.387Z,4.70
2022-09-15T01:30:25.075Z,5.85
2022-09-15T01:33:05.064Z,4.90
2022-09-15T01:35:48.561Z,5.55
2022-09-15T01:38:25.915Z,4.75
2022-09-15T01:40:59.601Z,4.22
2022-09-15T01:43:29.745Z,5.38
2022-09-15T01:46:00.833Z,4.50
2022-09-15T01:48:30.779Z,5.35
2022-09-15T01:51:01.411Z,4.93
2022-09-15T01:53:30.709Z,4.68
2022-09-15T01:56:05.155Z,4.82
2022-09-15T01:58:34.354Z,4.90
2022-09-15T02:01:08.817Z,4.72
2022-09-15T02:03:45.380Z,7.20
2022-09-15T02:06:22.051Z,5.00
2022-09-15T02:08:57.366Z,5.40
2022-09-15T02:11:30.338Z,5.30
2022-09-15T02:14:11.323Z,4.75
2022-09-15T02:16:56.907Z,4.93
2022-09-15T02:19:31.920Z,4.57
2022-09-15T02:22:07.802Z,4.05
2022-09-15T02:24:41.065Z,4.75
2022-09-15T02:27:13.972Z,5.70
2022-09-15T02:29:44.622Z,4.25
2022-09-15T02:32:17.557Z,4.25
2022-09-15T02:34:51.517Z,4.15
2022-09-15T02:37:21.460Z,4.55
2022-09-15T02:39:54.622Z,4.45
2022-09-15T02:42:27.078Z,4.50
2022-09-15T02:44:56.339Z,4.53
2022-09-15T02:47:27.976Z,6.18
2022-09-15T02:49:57.043Z,6.43
2022-09-15T02:52:25.840Z,7.32
2022-09-15T02:54:54.345Z,8.48
2022-09-15T02:57:23.539Z,7.70
2022-09-15T03:00:09.232Z,6.32
2022-09-15T03:02:39.436Z,5.32
2022-09-15T03:05:09.729Z,5.57
2022-09-15T03:07:38.541Z,6.57
2022-09-15T03:10:08.750Z,6.15
2022-09-15T03:12:39.286Z,7.05
2022-09-15T03:15:09.743Z,6.88
2022-09-15T03:17:41.506Z,5.70
2022-09-15T03:20:12.143Z,6.60
2022-09-15T03:22:40.936Z,7.53
2022-09-15T03:25:10.610Z,8.32
2022-09-15T03:27:40.146Z,8.90
2022-09-15T03:30:10.043Z,9.95
2022-09-15T03:32:39.688Z,6.90
2022-09-15T03:35:08.917Z,6.70
2022-09-15T03:37:37.329Z,6.95
2022-09-15T03:40:06.566Z,5.35
2022-09-15T03:42:35.208Z,9.48
2022-09-15T03:45:03.772Z,10.90
2022-09-15T03:47:33.337Z,15.02
2022-09-15T03:50:03.197Z,23.15
2022-09-15T03:52:32.500Z,22.77
2022-09-15T03:55:00.675Z,19.60
2022-09-15T03:57:29.173Z,23.80
2022-09-15T03:59:57.329Z,12.00
2022-09-15T04:02:25.529Z,13.38
2022-09-15T04:04:53.984Z,18.60
2022-09-15T04:07:23.446Z,33.03
2022-09-15T04:09:51.627Z,39.92
2022-09-15T04:12:20.318Z,38.05
2022-09-15T04:14:48.572Z,35.42
2022-09-15T04:17:16.786Z,20.95
2022-09-15T04:19:45.134Z,34.88
2022-09-15T04:22:17.671Z,24.42
2022-09-15T04:24:48.728Z,26.58
2022-09-15T04:27:17.307Z,30.08
2022-09-15T04:29:46.135Z,29.05
2022-09-15T04:32:14.937Z,18.35
2022-09-15T04:34:43.375Z,13.27
2022-09-15T04:37:11.868Z,8.05
2022-09-15T04:39:40.281Z,7.93
2022-09-15T04:42:10.295Z,5.55
2022-09-15T04:44:38.464Z,6.88
2022-09-15T04:47:07.206Z,7.15
2022-09-15T04:49:35.564Z,5.15
2022-09-15T04:52:07.735Z,5.45
2022-09-15T04:54:38.140Z,6.45
2022-09-15T04:57:06.508Z,5.00
2022-09-15T04:59:36.711Z,6.50
2022-09-15T05:02:05.922Z,6.85
2022-09-15T05:04:34.929Z,6.72
2022-09-15T05:07:03.364Z,7.20
2022-09-15T05:09:31.799Z,8.63
2022-09-15T05:11:59.853Z,7.38
2022-09-15T05:14:27.919Z,7.85
2022-09-15T05:16:57.935Z,7.78
2022-09-15T05:19:26.069Z,6.35
2022-09-15T05:21:54.149Z,6.75
2022-09-15T05:24:23.158Z,6.95
2022-09-15T05:26:51.315Z,7.75
2022-09-15T05:29:19.454Z,6.53
2022-09-15T05:31:47.799Z,6.40
2022-09-15T05:34:17.433Z,6.82
2022-09-15T05:36:45.644Z,6.95
2022-09-15T05:39:14.084Z,6.13
2022-09-15T05:41:42.796Z,10.73
2022-09-15T05:44:11.218Z,10.65
2022-09-15T05:46:39.903Z,13.43
2022-09-15T05:49:08.797Z,9.80
2022-09-15T05:51:38.474Z,8.27
2022-09-15T05:54:06.884Z,6.22
2022-09-15T05:56:35.182Z,9.10
2022-09-15T05:59:03.666Z,7.28
2022-09-15T06:01:32.242Z,5.32
2022-09-15T06:04:00.898Z,6.10
2022-09-15T06:06:32.203Z,5.85
2022-09-15T06:09:02.102Z,5.57
2022-09-15T06:11:33.648Z,5.50
2022-09-15T06:14:03.060Z,5.45
2022-09-15T06:16:33.878Z,5.93
2022-09-15T06:19:03.482Z,6.32
2022-09-15T06:21:33.333Z,5.28
2022-09-15T06:24:07.017Z,5.20
2022-09-15T06:26:35.665Z,4.85
2022-09-15T06:29:06.361Z,5.72
2022-09-15T06:31:36.697Z,5.05
2022-09-15T06:34:05.479Z,4.55
2022-09-15T06:36:34.290Z,4.72
2022-09-15T06:39:03.977Z,5.32
2022-09-15T06:41:58.355Z,5.03
2022-09-15T06:44:20.525Z,5.45
2022-09-15T06:46:49.322Z,4.85
2022-09-15T06:49:18.039Z,4.80
2022-09-15T06:51:46.354Z,3.97
2022-09-15T06:54:16.977Z,4.70
2022-09-15T06:56:47.291Z,4.55
2022-09-15T06:59:17.376Z,4.78
2022-09-15T07:02:01.452Z,4.53
2022-09-15T07:04:34.505Z,5.50
2022-09-15T07:07:02.693Z,5.20
2022-09-15T07:09:32.436Z,4.70
2022-09-15T07:12:00.752Z,4.30
2022-09-15T07:14:28.895Z,4.88
2022-09-15T07:16:57.112Z,3.95
2022-09-15T07:19:25.499Z,4.50
2022-09-15T07:21:53.892Z,4.80
2022-09-15T07:24:22.161Z,4.63
2022-09-15T07:26:52.085Z,3.85
2022-09-15T07:29:20.622Z,4.53
2022-09-15T07:31:49.777Z,4.05
2022-09-15T07:34:18.991Z,4.30
2022-09-15T07:36:47.245Z,5.13
2022-09-15T07:39:16.718Z,3.65
2022-09-15T07:41:45.049Z,3.75
2022-09-15T07:44:14.652Z,4.45
2022-09-15T07:46:43.279Z,4.28
2022-09-15T07:49:11.883Z,3.95
2022-09-15T07:51:40.127Z,4.30
2022-09-15T07:54:08.207Z,4.07
2022-09-15T07:56:36.997Z,3.60
2022-09-15T07:59:05.334Z,4.47
2022-09-15T08:01:35.236Z,3.97
2022-09-15T08:04:03.863Z,4.10
2022-09-15T08:06:32.776Z,3.70
2022-09-15T08:09:02.508Z,3.38
2022-09-15T08:11:31.564Z,3.90
2022-09-15T08:14:02.230Z,4.18
2022-09-15T08:16:30.573Z,4.95
2022-09-15T08:19:00.686Z,4.60
2022-09-15T08:21:29.532Z,3.78
2022-09-15T08:23:59.396Z,3.30
2022-09-15T08:26:29.842Z,4.82
2022-09-15T08:28:59.221Z,5.68
2022-09-15T08:31:27.619Z,5.68
2022-09-15T08:33:57.740Z,3.72
2022-09-15T08:36:28.321Z,4.05
2022-09-15T08:38:57.262Z,4.22
2022-09-15T08:41:29.030Z,4.57
2022-09-15T08:44:03.301Z,3.38
2022-09-15T08:46:35.934Z,3.55
2022-09-15T08:49:10.528Z,3.00
2022-09-15T08:51:46.157Z,3.05
2022-09-15T08:54:20.792Z,3.67
2022-09-15T08:56:49.620Z,3.42
2022-09-15T08:59:19.531Z,3.50
2022-09-15T09:02:04.061Z,4.03
2022-09-15T09:05:11.400Z,3.97
2022-09-15T09:07:59.701Z,3.65
2022-09-15T09:10:41.761Z,3.20
2022-09-15T09:13:21.218Z,3.58
2022-09-15T09:16:04.529Z,2.92
2022-09-15T09:19:03.687Z,3.35
2022-09-15T09:21:34.474Z,4.53
2022-09-15T09:24:07.263Z,3.80
2022-09-15T09:26:38.311Z,3.90
2022-09-15T09:29:13.544Z,3.88
2022-09-15T09:31:42.846Z,3.35
2022-09-15T09:34:21.570Z,3.08
2022-09-15T09:36:55.963Z,2.58
2022-09-15T09:39:26.303Z,3.17
2022-09-15T09:41:55.716Z,3.80
2022-09-15T09:44:31.725Z,2.72
2022-09-15T09:47:01.368Z,3.78
2022-09-15T09:49:34.617Z,3.13
2022-09-15T09:52:04.699Z,3.63
2022-09-15T09:54:35.702Z,3.38
2022-09-15T09:57:24.112Z,2.42
2022-09-15T09:59:53.244Z,3.83
2022-09-15T10:02:24.668Z,2.53
2022-09-15T10:04:55.023Z,3.50
2022-09-15T10:07:26.908Z,3.90
2022-09-15T10:09:59.232Z,3.10
2022-09-15T10:12:33.927Z,4.35
2022-09-15T10:15:05.754Z,4.15
2022-09-15T10:17:44.986Z,2.33
2022-09-15T10:20:28.281Z,3.65
2022-09-15T10:23:04.767Z,3.47
2022-09-15T10:25:57.663Z,3.30
2022-09-15T10:28:26.818Z,2.95
2022-09-15T10:31:05.937Z,3.40
2022-09-15T10:33:36.277Z,3.15
2022-09-15T10:36:08.137Z,3.13
2022-09-15T10:38:42.958Z,4.80
2022-09-15T10:41:22.814Z,2.47
2022-09-15T10:44:16.769Z,3.95
2022-09-15T10:46:54.395Z,2.90
2022-09-15T10:49:44.649Z,2.92
2022-09-15T10:52:25.336Z,3.53
2022-09-15T10:55:27.792Z,2.35
2022-09-15T10:58:27.941Z,3.13
2022-09-15T11:01:05.223Z,3.05
2022-09-15T11:03:56.765Z,3.22
2022-09-15T11:06:29.829Z,2.78
2022-09-15T11:09:15.039Z,2.55
2022-09-15T11:11:56.340Z,2.55
2022-09-15T11:14:39.493Z,2.72
2022-09-15T11:17:24.905Z,3.58
2022-09-15T11:20:13.000Z,2.47
2022-09-15T11:22:49.883Z,2.17
2022-09-15T11:25:22.355Z,3.78
2022-09-15T11:27:54.886Z,2.70
2022-09-15T11:30:25.741Z,2.75
2022-09-15T11:32:59.588Z,4.35
2022-09-15T11:35:40.636Z,2.30
2022-09-15T11:38:27.693Z,2.95
2022-09-15T11:41:02.000Z,2.47
2022-09-15T11:43:36.002Z,2.60
2022-09-15T11:46:14.765Z,2.35
2022-09-15T11:48:46.260Z,2.22
2022-09-15T11:51:17.304Z,2.80
2022-09-15T11:53:54.110Z,2.92
2022-09-15T11:56:27.611Z,3.33
2022-09-15T11:59:05.580Z,2.65
2022-09-15T12:01:42.345Z,2.63
2022-09-15T12:04:16.982Z,2.63
2022-09-15T12:06:52.270Z,2.20
2022-09-15T12:09:22.439Z,3.35
2022-09-15T12:11:53.673Z,2.25
2022-09-15T12:14:29.923Z,2.42
2022-09-15T12:17:00.354Z,2.65
2022-09-15T12:19:45.111Z,3.17
2022-09-15T12:22:19.058Z,3.25
2022-09-15T12:24:57.791Z,2.33
2022-09-15T12:27:28.809Z,3.83
2022-09-15T12:29:59.653Z,2.53
2022-09-15T12:32:30.193Z,2.88
2022-09-15T12:35:13.369Z,2.92
2022-09-15T12:37:45.138Z,2.63
2022-09-15T12:40:33.681Z,2.72
2022-09-15T12:43:03.803Z,4.53
2022-09-15T12:45:35.871Z,3.65
2022-09-15T12:48:08.177Z,3.40
2022-09-15T12:50:38.680Z,2.72
2022-09-15T12:53:20.381Z,4.00
2022-09-15T12:55:51.406Z,3.58
2022-09-15T12:58:26.657Z,2.97
2022-09-15T13:01:30.101Z,2.63
2022-09-15T13:04:26.964Z,2.83
2022-09-15T13:07:34.657Z,3.20
2022-09-15T13:10:28.061Z,2.22
2022-09-15T13:13:11.640Z,2.97
2022-09-15T13:15:46.152Z,3.08
2022-09-15T13:18:17.138Z,2.83
2022-09-15T13:20:53.046Z,3.22
2022-09-15T13:23:25.844Z,2.80
2022-09-15T13:25:57.574Z,2.75
2022-09-15T13:28:27.286Z,3.63
2022-09-15T13:31:09.483Z,2.65
2022-09-15T13:40:27.392Z,3.40
2022-09-15T13:43:32.124Z,2.78
2022-09-15T13:46:14.083Z,2.53
2022-09-15T13:48:55.009Z,3.30
2022-09-15T13:51:26.276Z,2.40
2022-09-15T13:53:59.620Z,2.78
2022-09-15T13:56:30.272Z,2.50
2022-09-15T13:59:08.210Z,3.00
2022-09-15T14:01:39.891Z,2.38
2022-09-15T14:04:13.865Z,2.72
2022-09-15T14:06:45.199Z,2.70
2022-09-15T14:09:19.747Z,2.33
2022-09-15T14:11:50.635Z,2.17
2022-09-15T14:14:35.396Z,3.28
2022-09-15T14:17:04.282Z,2.35
2022-09-15T14:19:34.727Z,3.22
2022-09-15T14:22:19.408Z,2.97
2022-09-15T14:24:51.845Z,2.70
2022-09-15T14:27:22.502Z,2.85
2022-09-15T14:29:55.263Z,3.38
2022-09-15T14:32:23.646Z,2.47
2022-09-15T14:34:52.992Z,1.70
2022-09-15T14:37:23.952Z,2.80
2022-09-15T14:39:56.463Z,3.78
2022-09-15T14:42:30.725Z,3.13
2022-09-15T14:48:03.085Z,2.40
2022-09-15T14:50:33.511Z,2.47
2022-09-15T14:53:05.356Z,2.85
2022-09-15T14:55:41.081Z,2.50
2022-09-15T14:58:15.137Z,3.10
2022-09-15T15:00:53.011Z,2.33
2022-09-15T15:03:30.902Z,2.80
2022-09-15T15:06:30.502Z,2.20
2022-09-15T15:09:03.788Z,2.67
2022-09-15T15:11:36.050Z,2.95
2022-09-15T15:14:08.538Z,3.67
2022-09-15T15:16:37.567Z,2.63
2022-09-15T15:19:06.346Z,2.97
2022-09-15T15:21:40.477Z,3.70
2022-09-15T15:24:16.073Z,3.72
2022-09-15T15:26:49.101Z,2.80
2022-09-15T15:29:42.959Z,3.08
2022-09-15T15:32:14.352Z,3.08
2022-09-15T15:34:49.871Z,2.95
2022-09-15T15:37:26.401Z,3.95
2022-09-15T15:39:56.030Z,2.58
2022-09-15T15:42:28.732Z,4.80
2022-09-15T15:45:02.587Z,2.70
2022-09-15T15:47:33.254Z,3.92
2022-09-15T15:50:13.911Z,2.83
2022-09-15T15:52:43.993Z,3.40
2022-09-15T15:55:15.675Z,2.58
2022-09-15T15:57:46.054Z,3.33
2022-09-15T16:00:24.415Z,2.28
2022-09-15T16:02:54.089Z,3.67
2022-09-15T16:05:26.207Z,2.75
2022-09-15T16:07:56.489Z,2.70
2022-09-15T16:10:30.011Z,2.75
2022-09-15T16:12:59.584Z,2.55
2022-09-15T16:15:28.373Z,2.47
2022-09-15T16:17:56.624Z,3.05
2022-09-15T16:20:25.269Z,2.70
2022-09-15T16:22:53.789Z,2.80
2022-09-15T16:25:28.672Z,2.67
2022-09-15T16:27:57.164Z,2.53
2022-09-15T16:30:26.951Z,3.10
2022-09-15T16:32:55.327Z,3.03
2022-09-15T16:35:32.311Z,2.47
2022-09-15T16:38:00.652Z,3.38
2022-09-15T16:40:29.252Z,4.15
2022-09-15T16:42:57.744Z,3.75
2022-09-15T16:45:36.488Z,3.30
2022-09-15T16:48:08.236Z,4.03
2022-09-15T16:50:39.883Z,1.90
2022-09-15T16:53:14.867Z,2.72
2022-09-15T16:55:46.226Z,3.53
2022-09-15T16:58:16.328Z,2.15
2022-09-15T17:00:48.439Z,2.17
2022-09-15T17:03:18.571Z,2.83
2022-09-15T17:05:49.730Z,4.68
2022-09-15T17:08:20.749Z,3.28
2022-09-15T17:10:50.212Z,4.97
2022-09-15T17:13:21.682Z,2.97
2022-09-15T17:15:54.171Z,3.85
2022-09-15T17:18:23.527Z,3.38
2022-09-15T17:20:51.973Z,3.80
2022-09-15T17:23:23.437Z,4.80
2022-09-15T17:25:57.359Z,4.55
2022-09-15T17:28:28.858Z,3.45
2022-09-15T17:31:00.421Z,3.03
2022-09-15T17:33:29.991Z,3.83
2022-09-15T17:35:59.308Z,4.15
2022-09-15T17:38:27.845Z,3.88
2022-09-15T17:40:56.175Z,4.15
2022-09-15T17:43:26.589Z,7.07
2022-09-15T17:45:55.634Z,6.80
2022-09-15T17:48:25.741Z,6.03
2022-09-15T17:50:54.286Z,5.43
2022-09-15T17:53:26.572Z,5.72
2022-09-15T17:55:57.147Z,6.30
2022-09-15T17:58:26.554Z,5.82
2022-09-15T18:00:55.484Z,5.10
2022-09-15T18:03:28.020Z,4.72
2022-09-15T18:05:58.307Z,9.00
2022-09-15T18:08:27.621Z,8.18
2022-09-15T18:10:56.892Z,7.63
2022-09-15T18:13:27.514Z,5.55
2022-09-15T18:15:56.336Z,3.75
2022-09-15T18:18:30.494Z,4.72
2022-09-15T18:20:59.492Z,3.63
2022-09-15T18:23:29.386Z,5.03
2022-09-15T18:25:58.097Z,7.90
2022-09-15T18:28:26.729Z,6.68
2022-09-15T18:30:55.007Z,4.30
2022-09-15T18:33:26.802Z,4.75
2022-09-15T18:35:58.883Z,4.78
2022-09-15T18:38:27.237Z,5.18
2022-09-15T18:40:57.956Z,4.65
2022-09-15T18:43:28.804Z,5.13
2022-09-15T18:46:00.065Z,4.22
2022-09-15T18:48:30.839Z,3.90
2022-09-15T18:50:59.492Z,3.65
2022-09-15T18:53:27.740Z,3.70
2022-09-15T18:55:56.060Z,4.13
2022-09-15T18:58:24.398Z,3.78
2022-09-15T19:00:52.641Z,4.72
2022-09-15T19:03:20.751Z,3.20
2022-09-15T19:05:50.643Z,4.07
2022-09-15T19:08:18.872Z,3.33
2022-09-15T19:10:47.915Z,4.05
2022-09-15T19:13:16.770Z,5.45
2022-09-15T19:15:44.945Z,3.72
2022-09-15T19:18:13.089Z,3.92
2022-09-15T19:20:41.774Z,4.68
2022-09-15T19:23:11.575Z,4.57
2022-09-15T19:25:42.618Z,3.38
2022-09-15T19:28:11.623Z,4.30
2022-09-15T19:30:39.821Z,3.00
2022-09-15T19:33:08.157Z,3.30
2022-09-15T19:35:36.924Z,3.97
2022-09-15T19:38:05.117Z,3.25
2022-09-15T19:40:34.704Z,3.42
2022-09-15T19:43:03.267Z,3.28
2022-09-15T19:45:31.772Z,3.42
2022-09-15T19:47:59.916Z,2.83
2022-09-15T19:50:28.263Z,3.83
2022-09-15T19:52:59.569Z,3.17
2022-09-15T19:55:28.848Z,3.03
2022-09-15T19:57:58.522Z,3.55
2022-09-15T20:00:26.853Z,2.85
2022-09-15T20:02:57.705Z,3.35
2022-09-15T20:05:27.115Z,3.58
2022-09-15T20:07:58.167Z,2.90
2022-09-15T20:10:27.743Z,2.78
2022-09-15T20:12:56.957Z,3.47
2022-09-15T20:15:27.490Z,3.70
2022-09-15T20:17:57.553Z,2.67
2022-09-15T20:20:26.838Z,3.65
2022-09-15T20:22:56.214Z,3.55
2022-09-15T20:25:25.569Z,2.95
2022-09-15T20:27:54.751Z,2.63
2022-09-15T20:30:25.066Z,2.50
2022-09-15T20:32:55.296Z,3.45
2022-09-15T20:35:24.563Z,3.83
2022-09-15T20:37:53.208Z,2.55
2022-09-15T20:40:22.258Z,2.80
2022-09-15T20:42:51.465Z,2.92
2022-09-15T20:45:20.867Z,3.00
2022-09-15T20:47:50.170Z,3.40
2022-09-15T20:50:21.161Z,3.58
2022-09-15T20:52:49.629Z,3.50
2022-09-15T20:55:18.574Z,4.10
2022-09-15T20:57:47.478Z,4.30
2022-09-15T21:00:17.117Z,3.90
2022-09-15T21:02:46.759Z,4.53
2022-09-15T21:05:15.639Z,3.25
2022-09-15T21:07:45.597Z,3.75
2022-09-15T21:10:15.680Z,2.90
2022-09-15T21:12:44.175Z,3.63
2022-09-15T21:15:12.749Z,3.70
2022-09-15T21:17:41.404Z,3.72
2022-09-15T21:20:10.585Z,4.00
2022-09-15T21:22:38.991Z,8.55
2022-09-15T21:25:09.427Z,4.28
2022-09-15T21:27:37.829Z,3.83
2022-09-15T21:30:07.170Z,3.63
2022-09-15T21:32:35.943Z,2.75
2022-09-15T21:35:05.155Z,3.22
2022-09-15T21:37:33.788Z,4.13
2022-09-15T21:40:02.573Z,5.32
2022-09-15T21:42:33.244Z,2.72
2022-09-15T21:45:01.806Z,4.22
2022-09-15T21:47:32.004Z,3.35
2022-09-15T21:50:01.343Z,3.38
2022-09-15T21:52:31.564Z,3.67
2022-09-15T21:55:00.506Z,2.45
2022-09-15T21:57:28.854Z,3.70
2022-09-15T21:59:58.582Z,3.58
2022-09-15T22:02:27.929Z,3.33
2022-09-15T22:04:56.880Z,3.38
2022-09-15T22:07:25.610Z,4.07
2022-09-15T22:09:54.259Z,3.22
2022-09-15T22:12:22.696Z,3.15
2022-09-15T22:14:51.225Z,6.78
2022-09-15T22:17:21.463Z,3.45
2022-09-15T22:19:50.049Z,4.00
2022-09-15T22:22:18.557Z,4.35
2022-09-15T22:24:48.971Z,2.97
2022-09-15T22:27:17.553Z,3.20
2022-09-15T22:29:45.957Z,3.63
2022-09-15T22:32:14.672Z,2.35
2022-09-15T22:34:45.347Z,3.08
2022-09-15T22:37:13.891Z,6.32
2022-09-15T22:39:58.492Z,5.65
2022-09-15T22:42:28.243Z,3.38
2022-09-15T22:44:57.058Z,2.85
2022-09-15T22:47:25.697Z,3.53
2022-09-15T22:49:55.546Z,3.13
2022-09-15T22:52:24.230Z,3.78
2022-09-15T22:54:53.365Z,3.28
2022-09-15T22:57:21.912Z,4.10
2022-09-15T22:59:50.559Z,3.58
2022-09-15T23:02:19.069Z,4.07
2022-09-15T23:04:47.332Z,3.13
2022-09-15T23:07:17.175Z,4.35
2022-09-15T23:09:45.538Z,2.33
2022-09-15T23:12:14.298Z,2.28
2022-09-15T23:14:42.680Z,3.35
2022-09-15T23:17:10.813Z,2.60
2022-09-15T23:19:39.192Z,3.70
2022-09-15T23:22:07.661Z,3.88
2022-09-15T23:24:37.507Z,3.22
2022-09-15T23:27:05.779Z,3.08
2022-09-15T23:29:34.046Z,3.38
2022-09-15T23:32:02.467Z,2.95
2022-09-15T23:34:30.636Z,4.18
2022-09-15T23:36:58.919Z,4.38
2022-09-15T23:39:27.070Z,3.33
2022-09-15T23:41:56.955Z,4.93
2022-09-15T23:44:25.452Z,4.35
2022-09-15T23:46:53.660Z,3.33
2022-09-15T23:49:22.179Z,3.90
2022-09-15T23:51:50.516Z,4.95
2022-09-15T23:54:19.021Z,2.78
2022-09-15T23:56:47.477Z,1.98
2022-09-15T23:59:18.604Z,2.97
